Time;durP1;ratioP1;P1;durP2;ratioP2;P2;SDS_P1;SDS_P2;PMS_P1;PMS_P2;Temp;Humidity;BMP_temperature;BMP_pressure;BME280_temperature;BME280_humidity;BME280_pressure;Samples;Min_cycle;Max_cycle;Signal;HPM_P1;HPM_P2
2021/06/23 00:00:36;;;;;;;7.50;2.53;;;;;;;19.98;97.90;93155.53;5059205;28;20044;-86
2021/06/23 00:03:03;;;;;;;7.25;2.90;;;;;;;20.00;97.73;93161.28;5052199;28;20049;-87
2021/06/23 00:05:30;;;;;;;7.47;2.72;;;;;;;19.80;97.26;93136.84;5052144;28;20052;-86
2021/06/23 00:07:56;;;;;;;10.40;3.25;;;;;;;19.95;97.17;93169.84;5052211;28;20504;-86
2021/06/23 00:10:23;;;;;;;6.57;2.00;;;;;;;19.79;97.86;93152.75;5052173;28;20056;-86
2021/06/23 00:12:51;;;;;;;9.82;3.42;;;;;;;19.62;98.02;93123.38;5052187;28;20063;-87
2021/06/23 00:15:20;;;;;;;8.95;2.30;;;;;;;19.98;98.38;93176.38;5052249;28;20677;-85
2021/06/23 00:17:47;;;;;;;7.90;2.65;;;;;;;19.77;98.45;93151.19;5051680;28;20504;-87
2021/06/23 00:20:16;;;;;;;4.10;2.35;;;;;;;19.87;98.10;93176.41;5052258;28;20053;-86
2021/06/23 00:22:43;;;;;;;12.95;4.15;;;;;;;19.71;97.44;93154.06;5051672;28;20049;-86
2021/06/23 00:25:11;;;;;;;9.93;2.95;;;;;;;19.81;97.73;93166.28;5051962;28;20052;-86
2021/06/23 00:27:39;;;;;;;16.20;2.92;;;;;;;19.71;97.77;93161.88;5052121;28;20400;-86
2021/06/23 00:30:08;;;;;;;11.25;3.42;;;;;;;19.67;98.03;93168.72;5068386;28;20742;-87
2021/06/23 00:32:40;;;;;;;7.10;2.95;;;;;;;19.71;97.62;93165.28;5071712;28;20040;-87
2021/06/23 00:35:08;;;;;;;7.68;2.38;;;;;;;19.58;98.52;93151.00;5051574;28;20060;-86
2021/06/23 00:37:35;;;;;;;7.55;3.08;;;;;;;19.71;99.05;93167.09;5051688;28;20087;-87
2021/06/23 00:40:02;;;;;;;6.78;1.80;;;;;;;19.77;98.76;93179.84;5051352;28;20045;-86
2021/06/23 00:42:29;;;;;;;8.55;4.13;;;;;;;19.70;99.16;93161.13;5051306;28;20068;-87
2021/06/23 00:44:56;;;;;;;8.35;2.08;;;;;;;19.66;98.48;93161.94;5051539;28;20060;-86
2021/06/23 00:47:25;;;;;;;9.15;3.25;;;;;;;19.73;97.83;93171.00;5051497;28;20412;-87
2021/06/23 00:49:54;;;;;;;7.20;2.25;;;;;;;19.67;97.31;93155.69;5055153;28;20045;-87
2021/06/23 00:52:21;;;;;;;10.32;3.88;;;;;;;19.68;96.99;93157.22;5071510;28;20060;-86
2021/06/23 00:54:50;;;;;;;5.38;2.75;;;;;;;19.68;97.72;93165.84;5070787;28;20384;-86
2021/06/23 00:57:19;;;;;;;7.70;2.65;;;;;;;19.27;98.76;93121.69;5071428;28;20056;-87
2021/06/23 00:59:50;;;;;;;7.05;2.42;;;;;;;19.41;99.35;93138.31;5071293;28;20059;-87
2021/06/23 01:02:19;;;;;;;11.02;3.83;;;;;;;19.40;99.03;93157.59;5071212;28;20059;-87
2021/06/23 01:04:47;;;;;;;5.13;2.13;;;;;;;19.08;99.32;93112.63;5070907;28;20048;-87
2021/06/23 01:07:15;;;;;;;5.78;2.88;;;;;;;19.42;99.63;93165.94;5071167;28;20080;-87
2021/06/23 01:09:42;;;;;;;8.98;3.38;;;;;;;18.99;99.50;93095.19;5071083;28;20048;-87
2021/06/23 01:12:21;;;;;;;9.02;2.58;;;;;;;19.43;99.31;93159.66;5070585;28;20060;-87
2021/06/23 01:14:51;;;;;;;8.95;3.90;;;;;;;19.00;99.27;93086.34;5070941;28;20052;-86
2021/06/23 01:17:20;;;;;;;10.10;3.00;;;;;;;18.90;100.00;93080.13;5071110;28;20052;-87
2021/06/23 01:19:49;;;;;;;6.25;2.55;;;;;;;19.02;100.00;93094.69;5071080;28;20083;-86
2021/06/23 01:22:17;;;;;;;6.43;2.50;;;;;;;19.29;100.00;93146.44;5070891;28;20052;-87
2021/06/23 01:24:45;;;;;;;7.03;3.10;;;;;;;19.29;100.00;93140.44;5070937;28;20143;-88
2021/06/23 01:27:12;;;;;;;4.47;3.00;;;;;;;19.30;100.00;93139.41;5070804;28;20044;-87
2021/06/23 01:29:40;;;;;;;6.13;3.25;;;;;;;19.21;100.00;93133.97;5070887;28;20063;-87
2021/06/23 01:32:09;;;;;;;8.95;2.65;;;;;;;19.22;100.00;93141.50;5070306;28;20049;-87
2021/06/23 01:34:37;;;;;;;6.43;3.88;;;;;;;19.11;100.00;93126.94;5070436;28;20518;-87
2021/06/23 01:37:05;;;;;;;4.75;2.42;;;;;;;19.09;100.00;93119.41;5070620;28;20044;-87
2021/06/23 01:39:33;;;;;;;6.30;2.65;;;;;;;19.23;100.00;93147.50;5070857;28;20491;-87
2021/06/23 01:42:00;;;;;;;4.75;2.78;;;;;;;19.27;100.00;93152.94;5070430;28;20056;-87
2021/06/23 01:44:28;;;;;;;4.78;2.00;;;;;;;19.20;100.00;93156.63;5069169;28;20052;-83
2021/06/23 01:46:55;;;;;;;9.60;2.38;;;;;;;19.02;100.00;93131.13;5068777;28;20052;-87
2021/06/23 01:49:25;;;;;;;7.38;3.72;;;;;;;18.53;100.00;93068.25;5067229;28;20057;-88
2021/06/23 01:51:52;;;;;;;8.02;2.88;;;;;;;18.99;100.00;93153.25;5069755;28;20076;-87
2021/06/23 01:54:19;;;;;;;12.85;2.28;;;;;;;18.58;100.00;93086.44;5068791;28;20056;-89
2021/06/23 01:57:04;;;;;;;10.40;2.50;;;;;;;18.57;100.00;93084.88;5069686;28;20040;-91
2021/06/23 01:59:44;;;;;;;11.13;2.55;;;;;;;19.00;100.00;93160.00;5068063;28;20052;-91
2021/06/23 02:02:28;;;;;;;5.32;2.80;;;;;;;18.55;100.00;93107.75;5067648;28;20036;-89
2021/06/23 02:05:02;;;;;;;9.35;2.80;;;;;;;18.53;100.00;93109.84;5068143;28;20404;-87
2021/06/23 02:08:05;;;;;;;6.05;2.10;;;;;;;18.66;100.00;93132.72;5067791;28;20055;-86
2021/06/23 02:10:55;;;;;;;5.38;3.10;;;;;;;18.73;100.00;93149.88;5068404;28;20060;-87
2021/06/23 02:14:01;;;;;;;5.97;2.88;;;;;;;18.70;100.00;93159.78;5058408;28;20412;-87
2021/06/23 02:16:30;;;;;;;9.75;3.83;;;;;;;18.02;100.00;93067.97;5067659;28;20060;-86
2021/06/23 02:19:05;;;;;;;7.47;2.60;;;;;;;18.54;100.00;93145.22;5069267;28;20052;-86
2021/06/23 02:21:36;;;;;;;5.83;2.27;;;;;;;18.64;100.00;93162.66;5069592;28;20135;-87
2021/06/23 02:24:03;;;;;;;9.80;2.40;;;;;;;18.25;100.00;93111.94;5066948;28;20139;-87
2021/06/23 02:26:30;;;;;;;6.45;3.15;;;;;;;18.61;100.00;93161.34;5069177;28;20048;-87
2021/06/23 02:28:58;;;;;;;7.95;2.83;;;;;;;18.60;100.00;93162.38;5069315;28;20438;-86
2021/06/23 02:31:28;;;;;;;8.55;2.80;;;;;;;18.65;100.00;93166.81;5069221;28;20044;-86
2021/06/23 02:33:58;;;;;;;7.15;2.72;;;;;;;18.67;100.00;93172.53;5069188;28;20053;-88
2021/06/23 02:36:26;;;;;;;11.05;3.28;;;;;;;18.60;100.00;93175.41;5066458;28;20048;-87
2021/06/23 02:38:54;;;;;;;4.50;3.17;;;;;;;18.57;100.00;93178.53;5069180;28;20513;-87
2021/06/23 02:41:21;;;;;;;10.45;3.05;;;;;;;18.58;100.00;93179.28;5066199;28;20064;-87
2021/06/23 02:43:51;;;;;;;10.30;3.75;;;;;;;18.58;100.00;93176.69;5068593;28;20048;-86
2021/06/23 02:46:20;;;;;;;9.88;3.35;;;;;;;18.54;100.00;93174.63;5068771;28;20062;-87
2021/06/23 02:48:47;;;;;;;8.02;3.33;;;;;;;18.55;100.00;93185.78;5068842;28;20122;-87
2021/06/23 02:51:20;;;;;;;15.63;2.88;;;;;;;18.47;100.00;93179.28;5069069;28;20463;-84
2021/06/23 02:53:48;;;;;;;7.20;2.92;;;;;;;18.41;100.00;93175.13;5069520;28;20110;-86
2021/06/23 02:56:16;;;;;;;9.52;4.00;;;;;;;18.49;100.00;93187.63;5068577;28;20463;-86
2021/06/23 02:58:44;;;;;;;7.72;2.75;;;;;;;18.37;100.00;93176.69;5069471;28;20051;-87
2021/06/23 03:01:27;;;;;;;6.47;2.35;;;;;;;18.41;100.00;93186.31;5069312;28;20044;-89
2021/06/23 03:04:10;;;;;;;13.50;3.22;;;;;;;18.38;100.00;93193.84;5068638;28;20409;-89
2021/06/23 03:06:52;;;;;;;4.82;2.60;;;;;;;17.96;100.00;93143.59;5068601;28;20052;-90
2021/06/23 03:09:32;;;;;;;9.02;2.60;;;;;;;18.00;100.00;93155.81;5068376;28;20455;-89
2021/06/23 03:12:13;;;;;;;8.77;3.70;;;;;;;18.41;100.00;93216.72;5068632;28;20045;-89
2021/06/23 03:14:55;;;;;;;5.43;2.70;;;;;;;18.33;100.00;93183.44;5068743;28;20102;-88
2021/06/23 03:17:33;;;;;;;14.85;5.03;;;;;;;18.50;100.00;93209.19;5068453;28;20128;-88
2021/06/23 03:20:16;;;;;;;11.15;4.32;;;;;;;18.45;100.00;93194.38;5068771;28;20389;-88
2021/06/23 03:22:57;;;;;;;7.78;4.05;;;;;;;18.18;100.00;93164.19;5068317;28;21295;-89
2021/06/23 03:25:40;;;;;;;5.22;3.42;;;;;;;18.22;100.00;93159.25;5068547;28;20079;-90
2021/06/23 03:28:21;;;;;;;8.00;2.95;;;;;;;18.41;100.00;93201.94;5069518;28;20040;-90
2021/06/23 03:31:06;;;;;;;8.32;3.72;;;;;;;18.44;100.00;93211.03;5068272;28;20300;-90
2021/06/23 03:33:46;;;;;;;9.90;3.55;;;;;;;18.09;100.00;93153.50;5068724;28;20044;-90
2021/06/23 03:36:37;;;;;;;7.43;2.72;;;;;;;17.72;100.00;93099.88;5068359;28;20397;-92
2021/06/23 03:39:16;;;;;;;9.93;4.13;;;;;;;18.47;100.00;93220.91;5067980;28;20045;-91
2021/06/23 03:42:03;;;;;;;11.43;3.20;;;;;;;18.59;100.00;93236.28;5068190;28;20411;-93
2021/06/23 03:44:46;;;;;;;6.45;3.38;;;;;;;17.90;100.00;93125.41;5067835;28;20134;-91
2021/06/23 03:47:24;;;;;;;7.38;3.33;;;;;;;18.11;100.00;93146.25;5068409;28;20049;-92
2021/06/23 03:50:07;;;;;;;9.10;3.70;;;;;;;18.71;100.00;93236.03;5068183;28;20048;-92
2021/06/23 03:52:51;;;;;;;9.77;2.88;;;;;;;18.52;100.00;93202.69;5068015;28;20048;-91
2021/06/23 03:55:30;;;;;;;13.60;3.78;;;;;;;18.16;100.00;93145.47;5067752;28;20427;-91
2021/06/23 03:58:09;;;;;;;12.38;5.00;;;;;;;18.93;100.00;93253.97;5068058;28;20049;-90
2021/06/23 04:00:47;;;;;;;12.57;4.47;;;;;;;18.67;100.00;93206.34;5067950;28;20098;-91
2021/06/23 04:03:25;;;;;;;11.15;3.55;;;;;;;18.69;100.00;93199.84;5067855;28;20053;-90
2021/06/23 04:06:03;;;;;;;11.82;3.53;;;;;;;18.88;100.00;93220.13;5068077;28;20045;-89
2021/06/23 04:08:46;;;;;;;7.07;3.22;;;;;;;18.92;100.00;93217.78;5068650;28;20068;-89
2021/06/23 04:11:24;;;;;;;6.22;3.17;;;;;;;18.74;100.00;93174.88;5071669;28;20049;-90
2021/06/23 04:14:03;;;;;;;14.65;3.58;;;;;;;19.36;100.00;93266.72;5071575;28;20048;-91
2021/06/23 04:16:57;;;;;;;8.43;3.30;;;;;;;19.43;100.00;93269.06;5071267;28;21060;-93
2021/06/23 04:19:39;;;;;;;11.52;3.83;;;;;;;18.81;100.00;93162.38;5071468;28;20053;-92
2021/06/23 04:22:42;;;;;;;9.95;4.13;;;;;;;18.96;100.00;93164.97;5071300;28;20052;-93
2021/06/23 04:25:28;;;;;;;9.02;5.68;;;;;;;19.10;100.00;93180.06;5071245;28;20056;-92
2021/06/23 04:31:43;;;;;;;10.57;4.28;;;;;;;19.23;100.00;93179.53;5036505;28;20498;-91
2021/06/23 04:34:42;;;;;;;9.55;4.28;;;;;;;19.52;100.00;93200.81;5070337;28;20123;-92
2021/06/23 04:37:20;;;;;;;11.25;4.15;;;;;;;19.54;100.00;93190.91;5070892;28;20052;-91
2021/06/23 04:43:55;;;;;;;6.38;3.28;;;;;;;20.05;99.29;93238.69;5028871;28;20049;-92
2021/06/23 04:53:52;;;;;;;10.63;4.45;;;;;;;20.68;99.20;93292.06;5064195;28;20389;-93
2021/06/23 05:00:12;;;;;;;9.35;3.08;;;;;;;20.23;97.58;93185.91;4999335;28;20172;-91
2021/06/23 05:02:53;;;;;;;10.00;3.72;;;;;;;21.01;96.45;93281.94;5047859;28;20055;-92
2021/06/23 05:05:31;;;;;;;11.90;3.80;;;;;;;21.18;96.57;93283.38;5047969;28;20084;-91
2021/06/23 05:08:10;;;;;;;14.20;3.88;;;;;;;20.94;95.21;93226.66;5070537;28;20044;-91
2021/06/23 05:10:48;;;;;;;12.07;4.07;;;;;;;21.13;97.45;93234.59;5070175;28;20049;-92
2021/06/23 05:13:26;;;;;;;8.88;2.85;;;;;;;21.21;97.65;93241.81;5070492;28;20174;-91
2021/06/23 05:16:10;;;;;;;7.65;3.70;;;;;;;21.12;94.41;93195.69;5070173;28;20048;-93
2021/06/23 05:18:56;;;;;;;12.00;4.03;;;;;;;21.13;95.63;93199.84;5070290;28;20143;-92
2021/06/23 05:39:08;;;;;;;6.95;3.53;;;;;;;22.38;91.03;93192.16;4860297;29;20570;-92
2021/06/23 06:01:55;;;;;;;9.48;3.50;;;;;;;24.52;81.97;93289.66;4985707;23;20165;-95
2021/06/23 06:04:25;;;;;;;12.00;4.13;;;;;;;24.68;80.78;93284.06;4996213;28;20049;-95
2021/06/23 06:06:52;;;;;;;12.07;5.50;;;;;;;24.93;80.67;93267.00;4998090;28;20046;-96
2021/06/23 06:09:19;;;;;;;12.57;5.75;;;;;;;25.07;78.30;93245.13;4999535;28;20054;-96
2021/06/23 06:11:46;;;;;;;9.52;3.85;;;;;;;25.67;76.96;93306.25;4999452;28;20141;-96
2021/06/23 06:14:13;;;;;;;9.98;4.07;;;;;;;25.71;75.87;93291.41;4999279;28;20046;-95
2021/06/23 06:16:40;;;;;;;12.88;4.35;;;;;;;25.66;76.02;93262.63;4998803;28;20057;-95
2021/06/23 06:19:11;;;;;;;11.80;4.50;;;;;;;26.12;75.91;93289.56;4999944;28;20054;-96
2021/06/23 06:21:38;;;;;;;12.05;3.38;;;;;;;26.36;73.79;93251.53;5000224;28;20137;-96
2021/06/23 06:24:06;;;;;;;9.95;4.20;;;;;;;26.82;72.25;93264.41;4999330;28;20056;-95
2021/06/23 06:26:33;;;;;;;16.73;5.10;;;;;;;27.33;68.94;93288.41;4998548;28;20052;-96
2021/06/23 06:29:00;;;;;;;9.02;4.88;;;;;;;27.69;68.36;93297.03;4998570;28;20046;-96
2021/06/23 06:31:27;;;;;;;18.13;5.47;;;;;;;27.96;67.43;93283.72;4998786;28;20050;-96
2021/06/23 06:33:54;;;;;;;10.43;3.78;;;;;;;28.09;66.08;93295.16;4998825;28;20046;-96
2021/06/23 06:36:23;;;;;;;12.20;4.57;;;;;;;28.19;65.42;93289.50;4998536;28;20053;-96
2021/06/23 06:38:50;;;;;;;9.82;4.60;;;;;;;28.08;64.73;93275.09;4999377;28;20057;-95
2021/06/23 06:41:17;;;;;;;19.65;7.95;;;;;;;28.37;64.81;93261.16;5000058;28;20548;-96
2021/06/23 06:43:44;;;;;;;16.13;9.98;;;;;;;28.73;63.12;93288.09;5002248;28;20057;-96
2021/06/23 06:46:11;;;;;;;21.25;7.97;;;;;;;28.90;63.15;93303.09;4999848;28;20080;-96
2021/06/23 06:48:38;;;;;;;19.05;10.27;;;;;;;29.03;62.52;93264.25;5001808;28;20056;-96
2021/06/23 06:51:06;;;;;;;24.40;10.32;;;;;;;-147.90;100.00;59510.75;5002306;28;20060;-96
2021/06/23 06:53:35;;;;;;;19.92;10.20;;;;;;;-147.90;100.00;59510.75;5001918;28;20072;-96
2021/06/23 06:56:07;;;;;;;28.50;10.30;;;;;;;-147.90;100.00;59510.75;5004694;28;20493;-96
2021/06/23 06:58:37;;;;;;;23.05;7.40;;;;;;;30.00;60.80;93281.00;5002293;28;20046;-96
2021/06/23 07:01:05;;;;;;;23.20;6.95;;;;;;;30.11;59.46;93281.34;5001037;28;20061;-96
2021/06/23 07:03:32;;;;;;;19.35;7.05;;;;;;;29.62;59.05;93295.28;5001091;28;20129;-96
2021/06/23 07:05:59;;;;;;;11.05;4.35;;;;;;;29.37;62.01;93284.63;4998446;28;20404;-96
2021/06/23 07:08:27;;;;;;;10.85;5.47;;;;;;;29.98;59.74;93288.47;4998651;28;20137;-96
2021/06/23 07:10:56;;;;;;;17.35;4.80;;;;;;;30.06;59.14;93289.47;4998746;28;20129;-96
2021/06/23 07:13:26;;;;;;;17.58;6.00;;;;;;;30.04;59.18;93318.19;4998786;28;20054;-96
2021/06/23 07:15:53;;;;;;;14.60;5.45;;;;;;;29.94;59.54;93282.31;4999025;28;20046;-96
2021/06/23 07:18:20;;;;;;;12.88;4.63;;;;;;;29.98;58.53;93291.13;4999557;28;20089;-96
2021/06/23 07:20:47;;;;;;;13.85;5.15;;;;;;;30.25;57.32;93281.78;4999215;28;20113;-96
2021/06/23 07:23:14;;;;;;;10.65;4.53;;;;;;;30.68;56.65;93310.63;4998510;28;20133;-96
2021/06/23 07:25:43;;;;;;;17.75;5.43;;;;;;;30.77;55.64;93290.09;4999151;28;20471;-96
2021/06/23 07:28:12;;;;;;;11.85;3.90;;;;;;;31.02;50.74;93262.72;4999263;28;20133;-95
2021/06/23 07:30:44;;;;;;;11.38;3.17;;;;;;;31.18;50.51;93278.66;4998145;28;20065;-95
2021/06/23 07:33:11;;;;;;;9.15;3.70;;;;;;;30.87;52.58;93290.75;4997529;28;20459;-95
2021/06/23 07:38:33;;;;;;;11.13;4.10;;;;;;;31.60;49.69;93294.19;4998432;28;20077;-96
2021/06/23 07:41:01;;;;;;;15.18;4.80;;;;;;;32.15;52.00;93308.75;4997821;28;20070;-96
2021/06/23 07:43:30;;;;;;;7.53;3.15;;;;;;;32.48;49.28;93288.25;5000060;28;20055;-96
2021/06/23 07:45:59;;;;;;;11.13;3.17;;;;;;;32.77;48.87;93291.50;5001511;28;20548;-96
2021/06/23 07:48:30;;;;;;;9.07;3.83;;;;;;;33.24;47.52;93305.75;5001970;28;20059;-96
2021/06/23 07:51:05;;;;;;;12.45;3.58;;;;;;;33.46;46.60;93303.47;5001942;28;20105;-94
2021/06/23 07:53:40;;;;;;;13.90;3.53;;;;;;;33.25;45.81;93275.34;5002014;28;20378;-96
2021/06/23 07:56:11;;;;;;;15.50;3.78;;;;;;;33.35;44.33;93295.28;5002006;28;20085;-96
2021/06/23 08:02:08;;;;;;;8.13;2.67;;;;;;;33.48;44.70;93303.88;5004026;28;20057;-96
2021/06/23 08:10:03;;;;;;;10.48;3.25;;;;;;;33.26;46.29;93311.47;5003981;28;20053;-96
2021/06/23 08:12:38;;;;;;;5.18;1.98;;;;;;;32.76;44.21;93263.38;5005193;28;20058;-96
2021/06/23 08:15:09;;;;;;;7.88;3.50;;;;;;;32.49;45.11;93293.19;5005462;28;20050;-96
2021/06/23 08:17:36;;;;;;;4.45;2.55;;;;;;;32.87;45.47;93271.56;5002390;28;20106;-96
2021/06/23 08:20:04;;;;;;;6.03;2.70;;;;;;;33.42;42.47;93282.09;5002821;28;20042;-96
2021/06/23 08:22:32;;;;;;;9.90;4.07;;;;;;;33.82;43.10;93288.09;5003623;28;20110;-96
2021/06/23 08:25:02;;;;;;;11.35;4.20;;;;;;;33.48;42.66;93252.50;5001353;28;20133;-96
2021/06/23 08:27:29;;;;;;;8.23;4.40;;;;;;;33.40;42.02;93276.34;5001851;28;20496;-96
2021/06/23 08:29:57;;;;;;;15.50;4.57;;;;;;;33.32;42.92;93301.31;5004738;28;20050;-96
2021/06/23 08:32:25;;;;;;;7.00;3.03;;;;;;;33.41;43.28;93327.72;5002489;28;20053;-96
2021/06/23 08:34:53;;;;;;;7.78;3.95;;;;;;;33.42;43.53;93276.75;5002725;28;20057;-96
2021/06/23 08:37:20;;;;;;;10.10;3.75;;;;;;;33.64;42.80;93273.75;5003237;28;20505;-96
2021/06/23 08:39:47;;;;;;;7.80;2.63;;;;;;;32.84;41.86;93265.03;5002605;28;20057;-96
2021/06/23 08:42:14;;;;;;;9.95;2.53;;;;;;;33.35;41.42;93297.19;5000977;28;20142;-96
2021/06/23 08:44:41;;;;;;;10.07;3.42;;;;;;;33.29;41.22;93312.66;5001001;28;20058;-96
2021/06/23 08:47:08;;;;;;;8.68;3.58;;;;;;;33.85;42.28;93313.28;5001180;28;20129;-95
2021/06/23 08:49:38;;;;;;;10.55;3.20;;;;;;;33.07;39.35;93274.25;5000900;28;20050;-96
2021/06/23 08:52:32;;;;;;;7.43;2.15;;;;;;;33.44;42.20;93244.47;5001734;28;20405;-96
2021/06/23 08:55:11;;;;;;;14.20;3.33;;;;;;;34.08;39.37;93283.19;4998114;28;20072;-96
2021/06/23 08:57:58;;;;;;;12.98;3.22;;;;;;;34.08;39.97;93273.31;5000158;28;20053;-96
2021/06/23 09:00:53;;;;;;;8.43;2.67;;;;;;;33.00;41.39;93299.56;5002653;28;20109;-96
2021/06/23 09:03:20;;;;;;;15.57;4.97;;;;;;;32.60;42.02;93247.47;4996149;28;20145;-96
2021/06/23 09:05:51;;;;;;;7.65;2.45;;;;;;;31.98;40.75;93294.72;5000672;28;20104;-96
2021/06/23 09:08:36;;;;;;;7.63;2.65;;;;;;;32.69;41.37;93324.38;5000304;28;20046;-96
2021/06/23 09:11:14;;;;;;;7.28;1.77;;;;;;;32.71;41.23;93317.59;5000351;28;20061;-96
2021/06/23 09:13:41;;;;;;;10.07;2.58;;;;;;;31.86;42.17;93338.09;5002320;28;20123;-96
2021/06/23 09:16:10;;;;;;;6.97;3.53;;;;;;;31.86;42.87;93319.50;5001549;28;20459;-96
2021/06/23 09:18:39;;;;;;;5.38;3.10;;;;;;;32.29;43.48;93312.88;5001385;28;20082;-96
2021/06/23 09:21:16;;;;;;;6.20;2.03;;;;;;;31.71;39.61;93286.47;5001864;28;20129;-96
2021/06/23 09:23:47;;;;;;;7.35;2.53;;;;;;;31.21;41.01;93285.97;5000911;28;20110;-96
2021/06/23 09:26:18;;;;;;;5.40;1.65;;;;;;;31.15;41.88;93298.69;5000058;28;20046;-96
2021/06/23 09:28:49;;;;;;;6.15;1.70;;;;;;;30.92;42.60;93331.03;5003392;28;20505;-96
2021/06/23 09:31:16;;;;;;;8.00;1.60;;;;;;;30.41;43.45;93286.41;5003775;28;20058;-96
2021/06/23 09:33:43;;;;;;;4.93;2.00;;;;;;;30.73;44.14;93307.00;5001818;28;20113;-96
2021/06/23 09:36:13;;;;;;;6.88;2.67;;;;;;;30.84;42.86;93333.81;5000476;28;20112;-96
2021/06/23 09:38:43;;;;;;;4.60;1.38;;;;;;;30.78;42.65;93304.88;5001221;28;20515;-96
2021/06/23 09:41:29;;;;;;;17.25;3.05;;;;;;;30.92;42.83;93311.72;5000863;28;20047;-96
2021/06/23 09:43:58;;;;;;;5.68;1.98;;;;;;;31.02;42.95;93335.13;5001302;28;20050;-96
2021/06/23 09:46:29;;;;;;;22.60;3.00;;;;;;;30.62;43.54;93275.63;5001242;28;20046;-96
2021/06/23 09:49:12;;;;;;;8.32;2.33;;;;;;;31.28;42.84;93306.63;4999227;28;20050;-96
2021/06/23 09:51:45;;;;;;;20.48;3.45;;;;;;;31.30;42.65;93313.16;5003165;28;20081;-96
2021/06/23 09:54:15;;;;;;;6.30;3.72;;;;;;;31.25;42.04;93310.72;5002252;28;20046;-96
2021/06/23 09:56:46;;;;;;;6.90;1.63;;;;;;;31.31;42.37;93309.38;5001030;28;20065;-96
2021/06/23 09:59:28;;;;;;;11.23;4.68;;;;;;;31.60;42.86;93301.34;5002538;28;20676;-96
2021/06/23 10:01:57;;;;;;;15.90;3.83;;;;;;;32.08;41.55;93306.69;4999328;28;20050;-96
2021/06/23 10:04:35;;;;;;;3.88;1.45;;;;;;;32.31;41.06;93281.41;4998391;28;20053;-96
2021/06/23 10:07:08;;;;;;;9.15;3.65;;;;;;;32.35;41.10;93296.28;4999728;28;20802;-96
2021/06/23 10:09:35;;;;;;;7.68;3.25;;;;;;;32.13;41.69;93266.59;4998340;28;20069;-94
2021/06/23 10:12:05;;;;;;;6.45;2.30;;;;;;;32.42;40.92;93279.00;4999362;28;20050;-96
2021/06/23 10:14:34;;;;;;;8.63;2.22;;;;;;;32.17;41.55;93297.78;4997629;28;20508;-93
2021/06/23 10:17:03;;;;;;;8.00;3.42;;;;;;;31.91;41.34;93286.59;4997435;28;20092;-96
2021/06/23 10:19:31;;;;;;;5.25;1.38;;;;;;;32.17;41.97;93297.78;4996969;28;20137;-96
2021/06/23 10:22:01;;;;;;;11.48;2.45;;;;;;;32.13;41.76;93305.69;5000333;28;20097;-96
2021/06/23 10:24:34;;;;;;;6.45;1.85;;;;;;;31.94;41.38;93324.97;4995894;28;20046;-96
2021/06/23 10:27:10;;;;;;;5.95;3.08;;;;;;;31.71;41.03;93294.44;4995623;28;20046;-96
2021/06/23 10:29:37;;;;;;;;;;;;;;;31.60;42.23;93325.25;5002017;28;20485;-96
2021/06/23 10:32:08;;;;;;;12.30;3.22;;;;;;;31.40;42.60;93268.63;4996493;28;19921;-96
2021/06/23 10:34:44;;;;;;;8.25;2.30;;;;;;;31.37;42.84;93248.09;4993229;28;20508;-95
2021/06/23 10:37:19;;;;;;;5.38;2.00;;;;;;;31.52;40.89;93265.16;4997266;28;20049;-96
2021/06/23 10:39:48;;;;;;;8.30;2.47;;;;;;;32.52;40.42;93281.09;4996929;28;20108;-95
2021/06/23 10:42:16;;;;;;;5.65;2.08;;;;;;;32.39;39.07;93248.53;4997418;28;20053;-96
2021/06/23 10:44:53;;;;;;;6.28;1.45;;;;;;;32.61;39.54;93291.53;4998578;28;20129;-96
2021/06/23 10:47:30;;;;;;;9.20;3.67;;;;;;;31.90;40.08;93260.38;4995806;28;20061;-95
2021/06/23 10:49:57;;;;;;;7.13;2.75;;;;;;;31.68;42.23;93292.47;4996788;28;20049;-96
2021/06/23 10:52:43;;;;;;;8.63;1.75;;;;;;;31.87;42.33;93309.63;4997082;28;20108;-94
2021/06/23 10:55:41;;;;;;;6.70;2.50;;;;;;;31.64;42.98;93302.22;4997147;28;20070;-96
2021/06/23 10:58:09;;;;;;;9.27;2.60;;;;;;;32.09;42.42;93289.66;4996132;28;20057;-96
2021/06/23 11:00:37;;;;;;;6.65;1.98;;;;;;;32.64;40.31;93296.94;4997338;28;20061;-96
2021/06/23 11:03:07;;;;;;;9.40;2.30;;;;;;;32.13;40.53;93253.31;4997392;28;20535;-96
2021/06/23 11:05:36;;;;;;;12.20;1.77;;;;;;;32.46;40.92;93306.44;4996612;28;20810;-96
2021/06/23 11:08:32;;;;;;;8.40;1.85;;;;;;;31.89;40.21;93235.72;4998037;28;20054;-96
2021/06/23 11:11:45;;;;;;;;;;;;;;;;;;;;;
2021/06/23 11:14:16;;;;;;;9.25;2.50;;;;;;;31.92;42.19;93247.53;4995553;28;20073;-95
2021/06/23 11:17:00;;;;;;;7.90;2.35;;;;;;;32.75;38.86;93280.44;4996431;28;20050;-96
2021/06/23 11:19:40;;;;;;;12.50;3.33;;;;;;;32.80;39.36;93274.84;5002059;28;20142;-96
2021/06/23 11:22:16;;;;;;;6.20;2.00;;;;;;;32.84;39.15;93281.00;5000394;28;20101;-96
2021/06/23 11:24:43;;;;;;;6.82;1.70;;;;;;;31.84;42.16;93257.19;5003398;28;20050;-96
2021/06/23 11:27:16;;;;;;;7.38;2.58;;;;;;;31.66;42.70;93281.41;5002326;28;20070;-96
2021/06/23 11:29:45;;;;;;;6.15;2.40;;;;;;;31.12;44.32;93290.63;5001632;28;20054;-96
2021/06/23 11:35:21;;;;;;;6.88;2.17;;;;;;;31.71;44.88;93291.78;4984452;28;20069;-96
2021/06/23 11:37:48;;;;;;;6.35;2.20;;;;;;;31.96;45.87;93310.25;5001449;28;20396;-93
2021/06/23 11:40:24;;;;;;;6.80;2.60;;;;;;;31.80;45.02;93312.09;5003891;28;20153;-95
2021/06/23 11:42:57;;;;;;;8.73;2.00;;;;;;;30.68;46.08;93220.50;5003993;28;20548;-96
2021/06/23 11:45:25;;;;;;;4.18;2.33;;;;;;;31.27;46.10;93323.63;5002533;28;20046;-96
2021/06/23 11:47:51;;;;;;;8.70;3.65;;;;;;;30.92;46.39;93293.16;5002537;28;20078;-96
2021/06/23 11:50:19;;;;;;;7.72;2.55;;;;;;;31.20;46.26;93318.91;5002536;28;20052;-96
2021/06/23 11:52:50;;;;;;;8.10;2.22;;;;;;;31.08;46.90;93248.09;5003075;28;20047;-96
2021/06/23 11:55:26;;;;;;;6.97;2.33;;;;;;;31.26;44.66;93282.28;5003426;28;20046;-96
2021/06/23 11:57:59;;;;;;;10.85;2.88;;;;;;;31.33;43.83;93237.41;5001353;28;20050;-96
2021/06/23 12:03:16;;;;;;;17.13;3.00;;;;;;;32.37;41.77;93306.59;5002952;28;20587;-96
2021/06/23 12:05:48;;;;;;;14.30;2.92;;;;;;;32.08;40.66;93290.75;5003071;28;20042;-96
2021/06/23 12:08:28;;;;;;;6.28;1.58;;;;;;;32.59;40.49;93288.47;5002869;28;20069;-96
2021/06/23 12:10:55;;;;;;;4.88;1.98;;;;;;;32.39;41.58;93253.84;5003053;28;20061;-96
2021/06/23 12:13:39;;;;;;;5.10;2.03;;;;;;;32.23;40.43;93237.94;5007311;28;20046;-96
2021/06/23 12:26:24;;;;;;;;;;;;;;;;;;;;;
2021/06/23 12:32:52;;;;;;;10.47;2.80;;;;;;;30.95;43.34;93334.91;4900286;29;20136;-96
2021/06/23 12:38:33;;;;;;;6.75;2.40;;;;;;;30.27;44.02;93282.22;4946620;29;20062;-96
2021/06/23 12:41:00;;;;;;;8.10;2.15;;;;;;;30.73;44.45;93341.47;4958408;29;20052;-96
2021/06/23 12:43:28;;;;;;;10.65;2.40;;;;;;;30.07;44.74;93241.47;4984739;28;20055;-96
2021/06/23 12:45:55;;;;;;;8.55;2.35;;;;;;;30.31;44.46;93284.19;5000562;28;20046;-96
2021/06/23 12:48:25;;;;;;;8.50;3.45;;;;;;;30.12;45.26;93256.38;5001021;28;20073;-96
2021/06/23 12:50:52;;;;;;;7.10;2.55;;;;;;;30.46;45.39;93325.16;5002944;28;20145;-96
2021/06/23 12:53:24;;;;;;;11.57;2.85;;;;;;;29.68;46.00;93241.81;5002552;28;20054;-96
2021/06/23 12:55:52;;;;;;;4.43;2.25;;;;;;;29.70;45.49;93254.69;5000753;28;20046;-96
2021/06/23 12:58:20;;;;;;;6.43;3.03;;;;;;;30.16;46.54;93349.22;5001294;28;20400;-96
2021/06/23 13:00:47;;;;;;;6.95;2.13;;;;;;;29.63;45.51;93268.50;5001315;28;20508;-96
2021/06/23 13:03:16;;;;;;;5.43;2.15;;;;;;;30.05;45.45;93315.19;5000623;28;20058;-94
2021/06/23 13:05:43;;;;;;;3.25;1.73;;;;;;;30.21;44.05;93296.00;5000809;28;20137;-96
2021/06/23 13:08:10;;;;;;;4.68;1.65;;;;;;;30.49;43.08;93268.81;5000510;28;20053;-95
2021/06/23 13:10:37;;;;;;;11.95;2.47;;;;;;;31.46;43.12;93315.03;5001860;28;20129;-96
2021/06/23 13:13:08;;;;;;;8.38;2.13;;;;;;;31.85;42.44;93309.22;5001067;28;20129;-96
2021/06/23 13:15:58;;;;;;;9.02;2.95;;;;;;;31.72;40.77;93305.84;5000962;28;20129;-96
2021/06/23 13:18:52;;;;;;;7.20;2.67;;;;;;;31.62;39.22;93290.41;4998544;28;20089;-95
2021/06/23 13:21:43;;;;;;;6.43;3.13;;;;;;;31.52;39.77;93246.56;4998377;28;20078;-96
2021/06/23 13:27:31;;;;;;;6.78;2.30;;;;;;;32.31;38.65;93282.19;4829330;29;20165;-95
2021/06/23 13:30:31;;;;;;;6.35;2.00;;;;;;;32.44;38.13;93280.19;4862063;29;20563;-96
2021/06/23 13:36:46;;;;;;;7.60;2.17;;;;;;;33.04;37.17;93335.00;4798134;29;20047;-95